createdAt,value
2018-09-08T00:01:48.956Z,62.04
2018-09-08T00:04:15.609Z,62.81
2018-09-08T00:06:42.293Z,62.07
2018-09-08T00:09:09.472Z,62.02
2018-09-08T00:11:37.661Z,62.55
2018-09-08T00:14:05.316Z,62.69
2018-09-08T00:16:38.489Z,62.55
2018-09-08T00:19:11.776Z,62.50
2018-09-08T00:21:44.952Z,62.39
2018-09-08T00:24:24.409Z,62.51
2018-09-08T00:26:52.257Z,61.60
2018-09-08T00:29:25.377Z,61.91
2018-09-08T00:31:53.384Z,61.20
2018-09-08T00:34:22.210Z,61.78
2018-09-08T00:36:49.760Z,62.39
2018-09-08T00:39:17.333Z,62.25
2018-09-08T00:41:44.008Z,61.81
2018-09-08T00:44:11.644Z,61.87
2018-09-08T00:46:38.291Z,61.86
2018-09-08T00:49:04.945Z,62.28
2018-09-08T00:51:31.595Z,61.20
2018-09-08T00:53:58.620Z,61.64
2018-09-08T00:56:26.231Z,61.42
2018-09-08T00:58:58.626Z,60.98
2018-09-08T01:01:26.230Z,61.06
2018-09-08T01:03:52.952Z,61.28
2018-09-08T01:06:20.501Z,61.38
2018-09-08T01:08:48.100Z,61.65
2018-09-08T01:11:15.751Z,60.86
2018-09-08T01:13:43.306Z,60.83
2018-09-08T01:16:10.755Z,60.75
2018-09-08T01:18:38.396Z,60.91
2018-09-08T01:21:08.000Z,61.15
2018-09-08T01:23:34.851Z,60.44
2018-09-08T01:26:02.577Z,60.41
2018-09-08T01:28:30.102Z,61.20
2018-09-08T01:30:56.776Z,60.14
2018-09-08T01:33:24.495Z,60.78
2018-09-08T01:35:54.501Z,60.92
2018-09-08T01:38:23.664Z,60.34
2018-09-08T01:40:50.347Z,60.46
2018-09-08T01:43:18.071Z,60.26
2018-09-08T01:45:45.692Z,60.14
2018-09-08T01:48:13.296Z,60.34
2018-09-08T01:50:40.025Z,60.04
2018-09-08T01:53:07.655Z,59.96
2018-09-08T01:55:35.172Z,60.70
2018-09-08T01:58:02.697Z,60.80
2018-09-08T02:00:30.225Z,59.95
2018-09-08T02:02:57.868Z,60.56
2018-09-08T02:05:25.522Z,59.81
2018-09-08T02:07:53.364Z,59.60
2018-09-08T02:10:20.013Z,59.87
2018-09-08T02:12:48.631Z,59.89
2018-09-08T02:15:16.121Z,60.73
2018-09-08T02:17:44.268Z,59.68
2018-09-08T02:20:11.708Z,59.96
2018-09-08T02:22:39.456Z,60.39
2018-09-08T02:25:06.986Z,60.45
2018-09-08T02:27:34.620Z,60.36
2018-09-08T02:30:01.284Z,59.93
2018-09-08T02:32:28.949Z,59.99
2018-09-08T02:34:55.608Z,59.40
2018-09-08T02:37:24.619Z,60.19
2018-09-08T02:39:53.712Z,59.88
2018-09-08T02:42:22.040Z,59.54
2018-09-08T02:44:49.604Z,59.38
2018-09-08T02:47:16.884Z,59.50
2018-09-08T02:49:49.131Z,60.00
2018-09-08T02:52:17.672Z,59.61
2018-09-08T02:54:43.853Z,59.49
2018-09-08T02:57:11.051Z,60.43
2018-09-08T02:59:37.252Z,60.31
2018-09-08T03:02:03.470Z,59.88
2018-09-08T03:04:29.661Z,60.31
2018-09-08T03:06:56.684Z,59.53
2018-09-08T03:09:23.749Z,59.02
2018-09-08T03:11:51.921Z,59.50
2018-09-08T03:14:19.061Z,59.42
2018-09-08T03:16:46.053Z,59.98
2018-09-08T03:19:13.060Z,59.98
2018-09-08T03:21:40.031Z,59.88
2018-09-08T03:24:07.038Z,59.78
2018-09-08T03:26:34.005Z,59.75
2018-09-08T03:29:00.220Z,58.99
2018-09-08T03:31:27.332Z,59.85
2018-09-08T03:33:54.438Z,59.81
2018-09-08T03:36:22.320Z,59.66
2018-09-08T03:38:49.533Z,59.14
2018-09-08T03:41:17.676Z,59.63
2018-09-08T03:43:45.089Z,59.04
2018-09-08T03:46:12.060Z,59.75
2018-09-08T03:48:39.036Z,59.52
2018-09-08T03:51:05.985Z,59.82
2018-09-08T03:53:33.031Z,58.79
2018-09-08T03:55:59.223Z,59.70
2018-09-08T03:58:26.370Z,58.68
2018-09-08T04:00:53.433Z,58.79
2018-09-08T04:03:22.184Z,59.69
2018-09-08T04:05:49.641Z,59.04
2018-09-08T04:08:18.514Z,59.11
2018-09-08T04:10:46.164Z,59.11
2018-09-08T04:13:14.488Z,59.32
2018-09-08T04:15:42.116Z,59.83
2018-09-08T04:18:09.815Z,59.55
2018-09-08T04:20:36.403Z,59.03
2018-09-08T04:23:03.053Z,58.60
2018-09-08T04:25:29.708Z,59.88
2018-09-08T04:27:57.334Z,59.32
2018-09-08T04:30:24.082Z,58.91
2018-09-08T04:32:52.609Z,59.40
2018-09-08T04:35:20.228Z,58.91
2018-09-08T04:37:49.327Z,59.32
2018-09-08T04:40:17.996Z,58.87
2018-09-08T04:42:45.941Z,58.66
2018-09-08T04:45:13.444Z,58.65
2018-09-08T04:47:41.116Z,59.21
2018-09-08T04:50:08.761Z,58.43
2018-09-08T04:52:36.260Z,58.63
2018-09-08T04:55:02.972Z,59.49
2018-09-08T04:57:30.480Z,59.19
2018-09-08T04:59:58.032Z,58.31
2018-09-08T05:02:25.559Z,59.26
2018-09-08T05:04:53.080Z,58.98
2018-09-08T05:07:21.721Z,59.15
2018-09-08T05:09:49.244Z,59.30
2018-09-08T05:12:17.796Z,59.21
2018-09-08T05:14:44.477Z,58.41
2018-09-08T05:17:11.142Z,58.95
2018-09-08T05:19:37.821Z,59.14
2018-09-08T05:22:04.644Z,58.73
2018-09-08T05:24:32.329Z,58.17
2018-09-08T05:26:59.005Z,57.97
2018-09-08T05:29:26.565Z,58.69
2018-09-08T05:31:53.238Z,58.36
2018-09-08T05:34:19.900Z,57.98
2018-09-08T05:36:47.524Z,58.89
2018-09-08T05:39:14.349Z,58.84
2018-09-08T05:41:42.437Z,58.81
2018-09-08T05:44:09.084Z,57.99
2018-09-08T05:46:35.759Z,58.15
2018-09-08T05:49:02.425Z,58.07
2018-09-08T05:51:29.092Z,57.90
2018-09-08T05:53:55.824Z,58.52
2018-09-08T05:56:23.100Z,59.07
2018-09-08T05:58:49.881Z,58.95
2018-09-08T06:01:17.524Z,57.98
2018-09-08T06:03:53.683Z,58.78
2018-09-08T06:06:20.485Z,57.94
2018-09-08T06:08:49.504Z,58.88
2018-09-08T06:11:18.144Z,58.10
2018-09-08T06:13:44.841Z,58.94
2018-09-08T06:16:12.492Z,58.23
2018-09-08T06:18:40.126Z,59.11
2018-09-08T06:21:07.845Z,58.30
2018-09-08T06:23:35.445Z,58.87
2018-09-08T06:26:03.053Z,58.48
2018-09-08T06:28:30.574Z,58.45
2018-09-08T06:30:58.232Z,58.45
2018-09-08T06:33:25.988Z,58.96
2018-09-08T06:35:54.842Z,58.02
2018-09-08T06:38:23.940Z,58.15
2018-09-08T06:40:52.543Z,58.82
2018-09-08T06:43:19.665Z,58.98
2018-09-08T06:45:47.316Z,58.51
2018-09-08T06:48:15.004Z,58.74
2018-09-08T06:50:42.612Z,58.46
2018-09-08T06:53:10.282Z,58.76
2018-09-08T06:55:37.949Z,58.80
2018-09-08T06:58:05.454Z,58.47
2018-09-08T07:00:32.949Z,57.87
2018-09-08T07:03:00.476Z,58.39
2018-09-08T07:05:27.228Z,57.85
2018-09-08T07:07:54.865Z,58.10
2018-09-08T07:10:23.522Z,57.31
2018-09-08T07:12:52.349Z,58.59
2018-09-08T07:15:20.053Z,58.97
2018-09-08T07:17:48.656Z,59.10
2018-09-08T07:20:16.069Z,58.86
2018-09-08T07:22:43.724Z,59.37
2018-09-08T07:25:11.391Z,59.25
2018-09-08T07:27:38.940Z,59.27
2018-09-08T07:30:06.589Z,59.47
2018-09-08T07:32:34.276Z,58.67
2018-09-08T07:35:01.897Z,58.83
2018-09-08T07:37:28.666Z,59.36
2018-09-08T07:39:56.149Z,59.25
2018-09-08T07:42:22.857Z,58.91
2018-09-08T07:44:50.412Z,59.72
2018-09-08T07:47:18.189Z,59.02
2018-09-08T07:49:45.720Z,59.13
2018-09-08T07:52:12.568Z,60.28
2018-09-08T07:54:40.208Z,59.63
2018-09-08T07:57:06.939Z,60.21
2018-09-08T07:59:33.614Z,59.53
2018-09-08T08:02:00.275Z,60.34
2018-09-08T08:04:26.941Z,59.52
2018-09-08T08:06:53.678Z,60.28
2018-09-08T08:09:21.867Z,59.86
2018-09-08T08:11:48.518Z,60.20
2018-09-08T08:14:15.208Z,59.56
2018-09-08T08:16:41.858Z,59.48
2018-09-08T08:19:09.372Z,60.28
2018-09-08T08:21:37.077Z,59.28
2018-09-08T08:24:04.817Z,59.41
2018-09-08T08:26:32.433Z,60.28
2018-09-08T08:28:59.205Z,59.57
2018-09-08T08:31:25.871Z,59.66
2018-09-08T08:33:53.348Z,59.84
2018-09-08T08:36:21.889Z,59.94
2018-09-08T08:38:49.360Z,59.99
2018-09-08T08:41:17.628Z,60.40
2018-09-08T08:43:44.331Z,59.75
2018-09-08T08:46:11.979Z,60.67
2018-09-08T08:48:39.453Z,59.69
2018-09-08T08:51:11.919Z,59.95
2018-09-08T08:53:44.220Z,59.45
2018-09-08T08:56:10.880Z,59.56
2018-09-08T08:58:38.669Z,59.69
2018-09-08T09:01:06.098Z,58.83
2018-09-08T09:03:33.776Z,58.83
2018-09-08T09:06:01.441Z,58.15
2018-09-08T09:08:29.481Z,59.12
2018-09-08T09:10:55.888Z,57.90
2018-09-08T09:13:23.595Z,58.57
2018-09-08T09:15:51.733Z,58.53
2018-09-08T09:18:25.777Z,58.12
2018-09-08T09:20:59.537Z,58.75
2018-09-08T09:27:51.798Z,58.40
2018-09-08T09:30:19.158Z,62.74
2018-09-08T09:32:45.868Z,60.02
2018-09-08T09:35:13.699Z,59.56
2018-09-08T09:37:40.539Z,59.28
2018-09-08T09:40:07.400Z,59.30
2018-09-08T09:42:34.052Z,59.03
2018-09-08T09:45:00.696Z,58.74
2018-09-08T09:47:27.343Z,59.24
2018-09-08T09:49:54.114Z,59.10
2018-09-08T09:52:21.818Z,59.31
2018-09-08T09:54:48.560Z,59.58
2018-09-08T09:57:15.241Z,59.18
2018-09-08T09:59:42.003Z,59.50
2018-09-08T10:03:11.662Z,58.83
2018-09-08T10:05:38.320Z,60.97
2018-09-08T10:08:04.961Z,60.11
2018-09-08T10:10:31.666Z,59.41
2018-09-08T10:12:58.318Z,59.32
2018-09-08T10:15:24.956Z,59.80
2018-09-08T10:17:53.501Z,59.88
2018-09-08T10:20:22.254Z,59.28
2018-09-08T10:22:49.856Z,58.52
2018-09-08T10:25:18.248Z,58.23
2018-09-08T10:27:46.230Z,58.58
2018-09-08T10:30:14.240Z,59.52
2018-09-08T10:32:41.845Z,59.64
2018-09-08T10:35:09.316Z,58.53
2018-09-08T10:37:36.005Z,58.81
2018-09-08T10:40:03.460Z,59.08
2018-09-08T10:42:30.462Z,59.72
2018-09-08T10:44:58.185Z,59.92
2018-09-08T10:47:24.881Z,59.99
2018-09-08T10:49:52.349Z,59.97
2018-09-08T10:52:23.124Z,59.45
2018-09-08T10:54:50.732Z,60.08
2018-09-08T10:57:19.033Z,59.95
2018-09-08T10:59:45.712Z,60.26
2018-09-08T11:02:12.537Z,57.83
2018-09-08T11:04:39.101Z,59.80
2018-09-08T11:07:06.641Z,59.86
2018-09-08T11:09:34.191Z,59.29
2018-09-08T11:12:00.849Z,59.98
2018-09-08T11:14:27.496Z,59.19
2018-09-08T11:16:54.151Z,59.20
2018-09-08T11:19:22.201Z,60.03
2018-09-08T11:21:49.812Z,59.76
2018-09-08T11:24:17.616Z,59.54
2018-09-08T11:26:45.126Z,59.65
2018-09-08T11:29:11.759Z,60.24
2018-09-08T11:31:38.452Z,59.78
2018-09-08T11:34:05.106Z,59.48
2018-09-08T11:36:31.739Z,59.94
2018-09-08T11:38:58.916Z,59.59
2018-09-08T11:41:25.533Z,60.34
2018-09-08T11:43:53.209Z,60.39
2018-09-08T11:46:19.853Z,60.54
2018-09-08T11:48:47.293Z,60.08
2018-09-08T11:51:13.933Z,60.37
2018-09-08T11:53:40.619Z,60.02
2018-09-08T11:56:07.244Z,60.51
2018-09-08T11:58:33.868Z,60.66
2018-09-08T12:01:00.519Z,59.99
2018-09-08T12:03:27.164Z,60.49
2018-09-08T12:05:54.959Z,59.88
2018-09-08T12:08:22.440Z,60.28
2018-09-08T12:10:49.121Z,60.22
2018-09-08T12:13:15.749Z,59.86
2018-09-08T12:15:42.393Z,58.93
2018-09-08T12:18:09.857Z,59.58
2018-09-08T12:20:36.497Z,59.52
2018-09-08T12:23:03.137Z,59.64
2018-09-08T12:25:29.917Z,60.66
2018-09-08T12:27:56.549Z,60.50
2018-09-08T12:30:24.135Z,60.80
2018-09-08T12:32:52.729Z,60.97
2018-09-08T12:35:19.368Z,60.14
2018-09-08T12:37:46.014Z,59.99
2018-09-08T12:40:12.689Z,60.43
2018-09-08T12:42:40.137Z,60.99
2018-09-08T12:45:06.848Z,60.38
2018-09-08T12:47:33.512Z,60.24
2018-09-08T12:50:01.045Z,61.05
2018-09-08T12:52:27.689Z,60.17
2018-09-08T12:54:54.385Z,60.44
2018-09-08T12:57:22.116Z,60.56
2018-09-08T12:59:48.781Z,60.48
2018-09-08T13:02:15.438Z,60.36
2018-09-08T13:04:42.096Z,60.86
2018-09-08T13:07:08.757Z,60.31
2018-09-08T13:09:35.400Z,60.98
2018-09-08T13:12:02.110Z,60.35
2018-09-08T13:14:28.754Z,61.08
2018-09-08T13:16:55.411Z,61.00
2018-09-08T13:19:22.776Z,61.01
2018-09-08T13:21:49.530Z,60.17
2018-09-08T13:24:16.200Z,61.17
2018-09-08T13:26:42.937Z,60.37
2018-09-08T13:29:10.650Z,60.31
2018-09-08T13:31:37.392Z,60.23
2018-09-08T13:34:04.074Z,60.37
2018-09-08T13:36:30.809Z,60.32
2018-09-08T13:38:57.522Z,61.11
2018-09-08T13:41:25.021Z,61.06
2018-09-08T13:43:52.508Z,60.99
2018-09-08T13:46:19.178Z,60.31
2018-09-08T13:48:45.877Z,60.42
2018-09-08T13:51:13.480Z,61.29
2018-09-08T13:53:41.124Z,60.42
2018-09-08T13:56:07.896Z,60.63
2018-09-08T13:58:35.468Z,61.06
2018-09-08T14:01:03.163Z,60.29
2018-09-08T14:03:29.808Z,60.65
2018-09-08T14:05:57.484Z,60.31
2018-09-08T14:08:24.187Z,60.26
2018-09-08T14:10:52.527Z,61.22
2018-09-08T14:13:20.029Z,60.60
2018-09-08T14:15:48.407Z,60.96
2018-09-08T14:18:15.049Z,61.43
2018-09-08T14:20:41.757Z,60.71
2018-09-08T14:23:09.251Z,60.64
2018-09-08T14:25:35.924Z,61.63
2018-09-08T14:28:03.612Z,61.42
2018-09-08T14:30:31.212Z,60.71
2018-09-08T14:32:59.064Z,60.63
2018-09-08T14:35:25.788Z,60.90
2018-09-08T14:37:53.001Z,60.93
2018-09-08T14:40:19.693Z,60.77
2018-09-08T14:42:46.535Z,60.83
2018-09-08T14:45:13.306Z,61.41
2018-09-08T14:47:41.325Z,61.51
2018-09-08T14:50:08.034Z,60.52
2018-09-08T14:52:34.685Z,60.46
2018-09-08T14:55:01.358Z,60.54
2018-09-08T14:57:28.031Z,61.26
2018-09-08T14:59:54.700Z,60.80
2018-09-08T15:02:22.855Z,61.54
2018-09-08T15:04:50.062Z,61.53
2018-09-08T15:07:17.590Z,60.81
2018-09-08T15:09:44.237Z,61.19
2018-09-08T15:12:10.972Z,61.53
2018-09-08T15:14:37.622Z,61.08
2018-09-08T15:17:05.395Z,61.37
2018-09-08T15:19:32.070Z,61.44
2018-09-08T15:21:59.748Z,60.75
2018-09-08T15:24:27.432Z,60.78
2018-09-08T15:26:54.067Z,60.79
2018-09-08T15:29:22.797Z,60.90
2018-09-08T15:31:50.430Z,61.30
2018-09-08T15:34:18.628Z,61.53
2018-09-08T15:36:46.313Z,61.62
2018-09-08T15:39:14.017Z,61.48
2018-09-08T15:41:41.543Z,60.73
2018-09-08T15:44:09.194Z,61.56
2018-09-08T15:46:35.909Z,61.42
2018-09-08T15:49:03.378Z,60.58
2018-09-08T15:51:30.952Z,61.54
2018-09-08T15:53:58.573Z,61.32
2018-09-08T15:56:26.336Z,61.40
2018-09-08T15:58:53.001Z,61.05
2018-09-08T16:01:19.653Z,60.72
2018-09-08T16:03:47.929Z,61.32
2018-09-08T16:06:15.542Z,60.72
2018-09-08T16:08:43.165Z,60.80
2018-09-08T16:11:11.345Z,60.91
2018-09-08T16:13:39.040Z,61.66
2018-09-08T16:16:06.665Z,60.83
2018-09-08T16:18:34.260Z,60.83
2018-09-08T16:21:00.949Z,60.78
2018-09-08T16:23:27.685Z,60.59
2018-09-08T16:25:55.247Z,60.88
2018-09-08T16:28:22.929Z,60.60
2018-09-08T16:30:50.551Z,60.58
2018-09-08T16:33:18.963Z,60.95
2018-09-08T16:35:45.629Z,61.59
2018-09-08T16:38:12.289Z,60.78
2018-09-08T16:40:38.962Z,61.43
2018-09-08T16:43:05.618Z,60.88
2018-09-08T16:45:32.292Z,61.37
2018-09-08T16:47:58.964Z,60.75
2018-09-08T16:50:25.622Z,61.55
2018-09-08T16:52:53.425Z,60.99
2018-09-08T16:55:20.099Z,61.37
2018-09-08T16:57:47.402Z,61.00
2018-09-08T17:00:14.640Z,61.27
2018-09-08T17:02:41.297Z,61.37
2018-09-08T17:05:08.145Z,61.42
2018-09-08T17:07:34.677Z,60.67
2018-09-08T17:10:01.340Z,59.97
2018-09-08T17:12:28.045Z,60.42
2018-09-08T17:14:54.696Z,61.29
2018-09-08T17:17:23.774Z,60.90
2018-09-08T17:19:52.505Z,60.39
2018-09-08T17:22:19.254Z,60.57
2018-09-08T17:24:45.960Z,61.57
2018-09-08T17:27:12.621Z,60.67
2018-09-08T17:29:40.258Z,60.19
2018-09-08T17:32:07.945Z,61.08
2018-09-08T17:34:35.577Z,60.50
2018-09-08T17:37:02.249Z,59.95
2018-09-08T17:39:28.949Z,60.32
2018-09-08T17:41:56.541Z,59.91
2018-09-08T17:44:24.081Z,60.15
2018-09-08T17:46:51.908Z,60.04
2018-09-08T17:49:19.380Z,59.44
2018-09-08T17:51:46.260Z,59.28
2018-09-08T17:54:13.932Z,59.50
2018-09-08T17:56:40.613Z,58.96
2018-09-08T17:59:07.322Z,58.42
2018-09-08T18:01:33.988Z,59.14
2018-09-08T18:04:00.701Z,58.34
2018-09-08T18:06:28.312Z,58.43
2018-09-08T18:08:55.776Z,59.08
2018-09-08T18:11:24.488Z,57.77
2018-09-08T18:13:53.059Z,58.05
2018-09-08T18:16:20.668Z,58.73
2018-09-08T18:18:47.997Z,58.56
2018-09-08T18:21:14.784Z,58.38
2018-09-08T18:23:41.589Z,58.07
2018-09-08T18:26:09.100Z,57.90
2018-09-08T18:28:36.737Z,58.76
2018-09-08T18:31:04.402Z,58.08
2018-09-08T18:33:31.065Z,58.08
2018-09-08T18:35:59.160Z,57.81
2018-09-08T18:38:26.724Z,58.14
2018-09-08T18:40:53.397Z,58.69
2018-09-08T18:43:22.310Z,58.23
2018-09-08T18:45:49.749Z,58.85
2018-09-08T18:48:16.421Z,59.02
2018-09-08T18:50:44.238Z,58.01
2018-09-08T18:53:11.772Z,59.03
2018-09-08T18:55:38.457Z,58.96
2018-09-08T18:58:05.748Z,58.79
2018-09-08T19:00:33.390Z,59.18
2018-09-08T19:03:01.027Z,58.11
2018-09-08T19:05:28.776Z,58.52
2018-09-08T19:07:56.829Z,59.13
2018-09-08T19:10:24.285Z,58.38
2018-09-08T19:12:53.034Z,59.28
2018-09-08T19:15:20.520Z,58.91
2018-09-08T19:17:49.053Z,59.31
2018-09-08T19:20:22.284Z,58.70
2018-09-08T19:22:49.995Z,58.66
2018-09-08T19:25:18.758Z,58.97
2018-09-08T19:27:46.424Z,59.13
2018-09-08T19:30:14.005Z,58.67
2018-09-08T19:32:41.595Z,57.91
2018-09-08T19:35:13.869Z,58.18
2018-09-08T19:37:41.416Z,57.78
2018-09-08T19:40:14.565Z,57.81
2018-09-08T19:42:42.076Z,58.28
2018-09-08T19:45:08.779Z,58.11
2018-09-08T19:47:42.043Z,57.92
2018-09-08T19:50:09.577Z,57.65
2018-09-08T19:52:42.991Z,57.31
2018-09-08T19:55:10.653Z,58.48
2018-09-08T19:57:43.005Z,58.13
2018-09-08T20:00:10.669Z,58.55
2018-09-08T20:02:37.345Z,58.25
2018-09-08T20:05:04.127Z,58.30
2018-09-08T20:07:30.791Z,58.28
2018-09-08T20:09:57.457Z,57.55
2018-09-08T20:12:24.097Z,57.75
2018-09-08T20:14:51.831Z,57.30
2018-09-08T20:17:18.617Z,57.89
2018-09-08T20:19:46.154Z,57.90
2018-09-08T20:22:12.766Z,57.82
2018-09-08T20:24:39.433Z,57.83
2018-09-08T20:27:06.128Z,58.12
2018-09-08T20:29:33.764Z,57.29
2018-09-08T20:32:01.468Z,57.43
2018-09-08T20:34:28.166Z,57.25
2018-09-08T20:36:54.976Z,57.12
2018-09-08T20:39:22.592Z,57.82
2018-09-08T20:41:50.228Z,57.04
2018-09-08T20:44:18.592Z,56.95
2018-09-08T20:46:46.203Z,57.86
2018-09-08T20:49:13.786Z,57.04
2018-09-08T20:51:41.304Z,57.42
2018-09-08T20:54:08.909Z,57.71
2018-09-08T20:56:36.613Z,57.60
2018-09-08T20:59:04.213Z,56.63
2018-09-08T21:01:30.944Z,57.26
2018-09-08T21:03:58.461Z,57.33
2018-09-08T21:06:26.228Z,57.10
2018-09-08T21:08:52.881Z,56.60
2018-09-08T21:11:22.138Z,57.69
2018-09-08T21:13:50.305Z,57.65
2018-09-08T21:16:18.301Z,57.84
2018-09-08T21:18:49.181Z,58.10
2018-09-08T21:21:17.987Z,57.96
2018-09-08T21:23:45.619Z,57.58
2018-09-08T21:26:13.141Z,57.54
2018-09-08T21:28:40.792Z,57.81
2018-09-08T21:31:08.420Z,57.87
2018-09-08T21:33:36.087Z,56.92
2018-09-08T21:36:02.727Z,57.32
2018-09-08T21:38:30.157Z,57.96
2018-09-08T21:40:56.896Z,56.87
2018-09-08T21:43:24.462Z,57.58
2018-09-08T21:45:54.437Z,56.76
2018-09-08T21:48:22.004Z,56.76
2018-09-08T21:50:50.055Z,57.72
2018-09-08T21:53:16.715Z,56.62
2018-09-08T21:55:43.384Z,56.65
2018-09-08T21:58:10.084Z,57.43
2018-09-08T22:00:36.765Z,56.34
2018-09-08T22:03:03.678Z,57.01
2018-09-08T22:05:30.441Z,57.23
2018-09-08T22:07:57.124Z,57.07
2018-09-08T22:10:23.763Z,56.00
2018-09-08T22:12:50.420Z,57.00
2018-09-08T22:15:17.879Z,56.17
2018-09-08T22:17:44.516Z,57.00
2018-09-08T22:20:12.248Z,56.86
2018-09-08T22:22:38.892Z,56.76
2018-09-08T22:25:05.720Z,56.96
2018-09-08T22:27:33.169Z,56.34
2018-09-08T22:29:59.832Z,56.39
2018-09-08T22:32:26.489Z,57.00
2018-09-08T22:34:54.101Z,56.39
2018-09-08T22:37:21.816Z,57.36
2018-09-08T22:39:49.740Z,56.42
2018-09-08T22:42:16.441Z,57.55
2018-09-08T22:44:43.080Z,57.31
2018-09-08T22:47:09.712Z,56.12
2018-09-08T22:49:36.366Z,56.25
2018-09-08T22:52:03.875Z,56.75
2018-09-08T22:54:31.465Z,56.76
2018-09-08T22:56:59.094Z,56.09
2018-09-08T22:59:25.742Z,56.47
2018-09-08T23:01:54.003Z,56.62
2018-09-08T23:04:20.652Z,57.12
2018-09-08T23:06:47.336Z,57.36
2018-09-08T23:09:13.988Z,57.29
2018-09-08T23:11:40.652Z,57.91
2018-09-08T23:14:07.339Z,57.74
2018-09-08T23:16:34.000Z,58.58
2018-09-08T23:19:00.653Z,58.04
2018-09-08T23:21:27.330Z,59.26
2018-09-08T23:23:53.976Z,59.14
2018-09-08T23:26:20.647Z,58.26
2018-09-08T23:28:47.951Z,58.49
2018-09-08T23:31:15.517Z,58.18
2018-09-08T23:33:42.171Z,57.64
2018-09-08T23:36:09.838Z,58.03
2018-09-08T23:38:37.378Z,57.03
2018-09-08T23:41:04.957Z,57.75
2018-09-08T23:43:31.683Z,56.96
2018-09-08T23:45:58.408Z,57.60
2018-09-08T23:48:25.096Z,57.72
2018-09-08T23:50:52.709Z,57.20
2018-09-08T23:53:20.393Z,56.88
2018-09-08T23:55:49.393Z,57.65
2018-09-08T23:58:16.927Z,57.41
